Time;durP1;ratioP1;P1;durP2;ratioP2;P2;SDS_P1;SDS_P2;PMS_P1;PMS_P2;Temp;Humidity;BMP_temperature;BMP_pressure;BME280_temperature;BME280_humidity;BME280_pressure;Samples;Min_cycle;Max_cycle;Signal;HPM_P1;HPM_P2
2023/07/26 00:02:28;;;;;;;2.55;1.95;;;;;;;17.15;100.00;96651.50;1223328;75;2920971;-67
2023/07/26 00:05:01;;;;;;;2.65;1.85;;;;;;;16.97;100.00;96649.72;1222136;75;2940411;-68
2023/07/26 00:07:33;;;;;;;1.80;1.40;;;;;;;17.10;100.00;96652.41;1222333;75;2926878;-65
2023/07/26 00:10:07;;;;;;;1.55;1.40;;;;;;;17.25;100.00;96655.25;1223125;75;2929109;-67
2023/07/26 00:12:40;;;;;;;3.05;1.70;;;;;;;17.19;100.00;96668.47;1223819;75;2921922;-66
2023/07/26 00:15:16;;;;;;;2.10;1.40;;;;;;;17.31;100.00;96668.16;1222873;75;2921743;-66
2023/07/26 00:17:48;;;;;;;2.35;1.80;;;;;;;17.08;100.00;96671.56;1222727;75;2929548;-69
2023/07/26 00:20:21;;;;;;;3.45;1.65;;;;;;;16.89;100.00;96668.31;1223071;75;2928302;-67
2023/07/26 00:22:53;;;;;;;2.40;1.45;;;;;;;17.29;100.00;96673.50;1222732;75;2924702;-68
2023/07/26 00:25:26;;;;;;;1.65;1.40;;;;;;;17.29;100.00;96671.47;1222483;75;2930267;-69
2023/07/26 00:27:59;;;;;;;2.15;1.30;;;;;;;17.28;100.00;96664.47;1222695;75;2925896;-69
2023/07/26 00:30:34;;;;;;;1.70;1.45;;;;;;;17.06;100.00;96676.88;1223412;75;2938104;-67
2023/07/26 00:33:06;;;;;;;2.15;1.35;;;;;;;17.12;100.00;96682.25;1223240;75;2925592;-68
2023/07/26 00:35:45;;;;;;;1.95;1.35;;;;;;;16.92;100.00;96686.56;1222772;75;2926355;-67
2023/07/26 00:38:17;;;;;;;1.70;1.50;;;;;;;17.15;100.00;96687.44;1222106;75;2936794;-65
2023/07/26 00:40:50;;;;;;;1.70;1.25;;;;;;;16.86;100.00;96685.94;1222140;75;2927091;-67
2023/07/26 00:43:22;;;;;;;2.45;1.85;;;;;;;16.78;100.00;96692.16;1222855;75;2926996;-67
2023/07/26 00:45:58;;;;;;;2.40;1.70;;;;;;;16.75;100.00;96693.22;1222956;75;2924010;-66
2023/07/26 00:48:31;;;;;;;3.60;1.50;;;;;;;16.84;100.00;96711.38;1223130;75;2928129;-68
2023/07/26 00:51:04;;;;;;;1.70;1.20;;;;;;;17.03;100.00;96717.44;1223056;75;2922707;-66
2023/07/26 00:53:38;;;;;;;1.85;1.40;;;;;;;16.83;100.00;96721.69;1223138;75;2929647;-66
2023/07/26 00:56:12;;;;;;;2.45;1.65;;;;;;;16.89;100.00;96727.09;1223155;75;2926492;-68
2023/07/26 00:58:44;;;;;;;2.65;1.20;;;;;;;16.89;100.00;96724.31;1223270;75;2925492;-65
2023/07/26 01:01:20;;;;;;;2.95;1.60;;;;;;;16.97;100.00;96716.81;1222897;75;2925725;-66
2023/07/26 01:03:53;;;;;;;2.45;1.40;;;;;;;16.98;100.00;96723.09;1223849;75;2928565;-68
2023/07/26 01:06:34;;;;;;;3.25;1.40;;;;;;;16.99;100.00;96736.38;1222715;75;2934017;-69
2023/07/26 01:09:14;;;;;;;1.75;1.30;;;;;;;16.73;100.00;96733.75;1222996;75;2931291;-69
2023/07/26 01:11:57;;;;;;;1.85;1.10;;;;;;;16.90;100.00;96739.63;1223002;75;2925808;-66
2023/07/26 01:14:42;;;;;;;1.70;1.40;;;;;;;16.94;100.00;96737.25;1222931;75;2928056;-67
2023/07/26 01:17:18;;;;;;;1.90;1.30;;;;;;;17.00;100.00;96746.16;1221578;75;2928900;-68
2023/07/26 01:19:50;;;;;;;1.90;1.35;;;;;;;16.78;100.00;96749.44;1222815;75;2921158;-68
2023/07/26 01:22:26;;;;;;;1.25;1.00;;;;;;;17.00;100.00;96753.69;1222943;75;2935451;-67
2023/07/26 01:24:58;;;;;;;2.15;1.50;;;;;;;16.71;100.00;96756.38;1222232;75;2921817;-67
2023/07/26 01:27:31;;;;;;;1.85;1.20;;;;;;;16.86;100.00;96755.06;1222651;75;2937152;-66
2023/07/26 01:30:03;;;;;;;1.35;1.00;;;;;;;16.83;100.00;96770.69;1222803;75;2924958;-67
2023/07/26 01:32:37;;;;;;;1.85;1.30;;;;;;;16.67;100.00;96778.09;1222702;75;2931151;-67
2023/07/26 01:35:11;;;;;;;2.45;1.50;;;;;;;16.80;100.00;96796.66;1223087;75;2927451;-66
2023/07/26 01:37:46;;;;;;;1.45;1.05;;;;;;;16.86;100.00;96808.34;1222945;75;2921437;-66
2023/07/26 01:40:19;;;;;;;2.90;1.50;;;;;;;16.42;100.00;96824.63;1222927;75;2922463;-69
2023/07/26 01:42:52;;;;;;;1.45;1.20;;;;;;;16.39;100.00;96834.00;1223734;75;2935423;-65
2023/07/26 01:45:25;;;;;;;1.70;1.50;;;;;;;16.51;100.00;96837.25;1222874;75;2920332;-67
2023/07/26 01:47:58;;;;;;;2.45;1.30;;;;;;;16.45;100.00;96848.44;1222864;75;2922658;-66
2023/07/26 01:50:30;;;;;;;2.45;1.40;;;;;;;16.39;100.00;96856.09;1222575;75;2923076;-67
2023/07/26 01:53:06;;;;;;;3.20;1.30;;;;;;;16.37;100.00;96848.31;1223565;75;2924154;-65
2023/07/26 01:55:38;;;;;;;1.95;1.45;;;;;;;16.22;100.00;96850.19;1222940;75;2920560;-64
2023/07/26 01:58:11;;;;;;;2.20;1.45;;;;;;;16.32;100.00;96846.44;1223402;75;2918591;-66
2023/07/26 02:00:43;;;;;;;2.35;1.40;;;;;;;16.66;100.00;96839.44;1222747;75;2932168;-66
2023/07/26 02:03:16;;;;;;;1.10;0.90;;;;;;;16.68;100.00;96834.84;1222315;75;2928399;-68
2023/07/26 02:05:50;;;;;;;1.00;0.85;;;;;;;16.58;100.00;96831.06;1222546;75;2926949;-66
2023/07/26 02:08:25;;;;;;;1.35;1.15;;;;;;;16.34;100.00;96835.59;1222680;75;2928154;-69
2023/07/26 02:10:58;;;;;;;1.15;0.95;;;;;;;16.38;100.00;96815.94;1222192;75;2931170;-67
2023/07/26 02:13:31;;;;;;;1.50;1.00;;;;;;;16.50;100.00;96819.94;1222749;75;2925938;-65
2023/07/26 02:16:03;;;;;;;1.00;0.90;;;;;;;16.86;100.00;96816.63;1222662;75;2932771;-68
2023/07/26 02:18:36;;;;;;;1.80;0.85;;;;;;;16.93;100.00;96820.72;1222852;75;2923957;-66
2023/07/26 02:21:09;;;;;;;0.90;0.80;;;;;;;16.94;100.00;96811.91;1222495;75;2924867;-66
2023/07/26 02:23:44;;;;;;;0.55;0.55;;;;;;;17.00;100.00;96803.47;1223351;75;2919985;-65
2023/07/26 02:26:17;;;;;;;0.85;0.70;;;;;;;16.96;100.00;96803.09;1223129;75;2935020;-67
2023/07/26 02:28:49;;;;;;;1.30;1.20;;;;;;;16.78;100.00;96797.19;1222647;75;2934049;-66
2023/07/26 02:31:22;;;;;;;1.45;1.00;;;;;;;16.95;100.00;96791.25;1224158;75;2926910;-65
2023/07/26 02:33:54;;;;;;;1.20;1.00;;;;;;;17.02;100.00;96796.13;1223053;75;2936599;-66
2023/07/26 02:36:27;;;;;;;1.25;1.05;;;;;;;16.77;100.00;96798.47;1222904;75;2925985;-66
2023/07/26 02:39:03;;;;;;;1.00;0.80;;;;;;;16.97;100.00;96802.53;1223180;75;2925949;-65
2023/07/26 02:41:36;;;;;;;2.05;1.40;;;;;;;16.56;100.00;96795.69;1222343;75;2933996;-65
2023/07/26 02:44:09;;;;;;;2.55;2.00;;;;;;;16.41;100.00;96798.28;1222891;75;2931813;-64
2023/07/26 02:46:41;;;;;;;3.10;1.85;;;;;;;16.37;100.00;96792.34;1222889;75;2920878;-65
2023/07/26 02:49:14;;;;;;;2.00;1.60;;;;;;;16.64;100.00;96783.97;1222731;75;2926939;-67
2023/07/26 02:51:47;;;;;;;1.45;1.30;;;;;;;16.78;100.00;96786.13;1222989;75;2927601;-66
2023/07/26 02:54:22;;;;;;;1.20;1.10;;;;;;;16.70;100.00;96771.50;1223013;75;2918914;-69
2023/07/26 02:56:54;;;;;;;2.10;1.00;;;;;;;16.83;100.00;96768.69;1221920;75;2939137;-66
2023/07/26 02:59:27;;;;;;;1.00;0.90;;;;;;;16.74;100.00;96765.63;1222030;75;2924179;-68
2023/07/26 03:02:00;;;;;;;1.15;0.80;;;;;;;16.85;100.00;96776.44;1222956;75;2923223;-66
2023/07/26 03:04:33;;;;;;;1.00;0.70;;;;;;;16.84;100.00;96786.03;1221990;75;2937397;-67
2023/07/26 03:07:06;;;;;;;1.75;1.20;;;;;;;16.58;100.00;96798.66;1222914;75;2931726;-69
2023/07/26 03:09:41;;;;;;;2.25;1.60;;;;;;;16.19;100.00;96799.53;1222507;75;2939196;-67
2023/07/26 03:12:13;;;;;;;3.70;1.70;;;;;;;16.17;100.00;96796.56;1223309;75;2925327;-66
2023/07/26 03:14:46;;;;;;;2.25;1.35;;;;;;;16.06;100.00;96782.97;1222644;75;2926066;-66
2023/07/26 03:17:19;;;;;;;2.00;1.55;;;;;;;16.30;100.00;96774.41;1222556;75;2927838;-66
2023/07/26 03:19:51;;;;;;;2.05;1.50;;;;;;;16.04;100.00;96771.72;1221764;75;2926887;-67
2023/07/26 03:22:24;;;;;;;3.45;1.60;;;;;;;15.94;100.00;96763.13;1222795;75;2935521;-69
2023/07/26 03:24:59;;;;;;;1.75;1.20;;;;;;;16.38;100.00;96744.88;1223375;75;2918570;-67
2023/07/26 03:27:32;;;;;;;1.55;1.20;;;;;;;16.42;100.00;96750.03;1223447;75;2927793;-67
2023/07/26 03:30:05;;;;;;;1.20;1.00;;;;;;;16.43;100.00;96750.78;1222824;75;2932182;-68
2023/07/26 03:32:38;;;;;;;1.00;0.90;;;;;;;16.55;100.00;96750.00;1222513;75;2931674;-67
2023/07/26 03:35:11;;;;;;;1.30;0.95;;;;;;;16.55;100.00;96752.03;1222239;75;2922666;-68
2023/07/26 03:37:44;;;;;;;1.40;0.90;;;;;;;16.55;100.00;96752.75;1223063;75;2928047;-66
2023/07/26 03:40:20;;;;;;;2.00;1.50;;;;;;;16.18;100.00;96751.09;1222123;75;2928056;-69
2023/07/26 03:42:52;;;;;;;2.10;1.50;;;;;;;16.21;100.00;96747.28;1222439;75;2940811;-66
2023/07/26 03:45:26;;;;;;;1.45;1.30;;;;;;;16.16;100.00;96757.16;1222351;75;2930121;-67
2023/07/26 03:47:59;;;;;;;1.20;1.10;;;;;;;15.97;100.00;96757.31;1221922;75;2919322;-66
2023/07/26 03:50:32;;;;;;;1.45;1.20;;;;;;;15.93;100.00;96758.91;1221689;75;2929874;-66
2023/07/26 03:53:05;;;;;;;1.70;1.40;;;;;;;16.25;100.00;96764.22;1222846;75;2926641;-68
2023/07/26 03:55:40;;;;;;;1.55;1.10;;;;;;;16.09;100.00;96773.63;1221857;75;2924177;-67
2023/07/26 03:58:13;;;;;;;2.45;1.15;;;;;;;16.24;100.00;96778.59;1222320;75;2941931;-67
2023/07/26 04:00:45;;;;;;;1.30;1.20;;;;;;;16.00;100.00;96782.38;1221661;75;2924903;-70
2023/07/26 04:03:18;;;;;;;1.95;1.80;;;;;;;15.85;100.00;96783.66;1222763;75;2929662;-67
2023/07/26 04:05:51;;;;;;;1.25;1.15;;;;;;;16.13;100.00;96788.59;1222080;75;2927022;-66
2023/07/26 04:08:23;;;;;;;2.80;1.35;;;;;;;16.01;100.00;96786.59;1222392;75;2941975;-67
2023/07/26 04:10:59;;;;;;;2.85;1.80;;;;;;;15.88;100.00;96784.63;1222278;75;2923224;-66
2023/07/26 04:13:31;;;;;;;1.60;1.40;;;;;;;15.79;100.00;96791.28;1222826;75;2934336;-68
2023/07/26 04:16:04;;;;;;;2.60;1.80;;;;;;;15.74;100.00;96790.13;1222207;75;2924293;-67
2023/07/26 04:18:37;;;;;;;2.95;1.90;;;;;;;15.89;100.00;96792.34;1222279;75;2933954;-68
2023/07/26 04:21:09;;;;;;;3.15;1.80;;;;;;;15.72;100.00;96800.22;1221939;75;2923385;-69
2023/07/26 04:23:42;;;;;;;11.35;9.75;;;;;;;15.79;100.00;96801.59;1222928;75;2921673;-68
2023/07/26 04:26:19;;;;;;;23.00;20.45;;;;;;;16.00;100.00;96807.94;1220391;75;2971446;-66
2023/07/26 04:28:51;;;;;;;25.10;22.40;;;;;;;15.88;100.00;96810.19;1222686;75;2922544;-66
2023/07/26 04:31:24;;;;;;;10.35;9.25;;;;;;;15.79;100.00;96818.16;1221644;75;2929776;-65
2023/07/26 04:33:57;;;;;;;9.85;8.85;;;;;;;15.91;100.00;96819.41;1223333;75;2922418;-66
2023/07/26 04:36:30;;;;;;;6.90;5.95;;;;;;;16.05;100.00;96811.88;1222800;75;2924742;-69
2023/07/26 04:39:02;;;;;;;8.10;4.70;;;;;;;15.69;100.00;96821.31;1222270;75;2940497;-66
2023/07/26 04:41:38;;;;;;;2.80;2.45;;;;;;;15.80;100.00;96814.84;1222789;75;2932883;-68
2023/07/26 04:44:11;;;;;;;2.65;1.95;;;;;;;15.87;100.00;96816.22;1222300;75;2928374;-65
2023/07/26 04:46:43;;;;;;;3.00;1.85;;;;;;;15.87;100.00;96805.94;1222929;75;2942824;-66
2023/07/26 04:49:16;;;;;;;2.95;1.85;;;;;;;15.70;100.00;96819.31;1222534;75;2924851;-66
2023/07/26 04:51:48;;;;;;;7.30;2.10;;;;;;;15.53;100.00;96825.84;1218833;75;2927094;-66
2023/07/26 04:54:21;;;;;;;2.45;1.90;;;;;;;15.36;100.00;96844.72;1221943;75;2925410;-67
2023/07/26 04:56:56;;;;;;;3.45;1.80;;;;;;;15.52;100.00;96845.72;1223290;75;2920759;-67
2023/07/26 04:59:29;;;;;;;2.25;1.60;;;;;;;15.54;100.00;96843.91;1222544;75;2932013;-67
2023/07/26 05:02:01;;;;;;;2.75;1.80;;;;;;;15.54;100.00;96832.88;1222276;75;2921839;-65
2023/07/26 05:04:34;;;;;;;1.90;1.45;;;;;;;15.58;100.00;96831.81;1222348;75;2929151;-65
2023/07/26 05:07:08;;;;;;;1.40;1.20;;;;;;;15.66;100.00;96843.72;1222971;75;2923961;-64
2023/07/26 05:09:40;;;;;;;2.70;1.50;;;;;;;15.73;100.00;96840.34;1222874;75;2946249;-65
2023/07/26 05:12:15;;;;;;;1.95;1.50;;;;;;;15.72;100.00;96847.13;1223171;75;2923939;-69
2023/07/26 05:14:48;;;;;;;2.30;1.30;;;;;;;15.75;100.00;96841.31;1222621;75;2925668;-65
2023/07/26 05:17:21;;;;;;;1.95;1.20;;;;;;;16.01;100.00;96836.28;1222744;75;2918916;-68
2023/07/26 05:19:54;;;;;;;1.50;1.10;;;;;;;16.01;100.00;96828.75;1222769;75;2923632;-67
2023/07/26 05:22:26;;;;;;;1.15;1.05;;;;;;;15.77;100.00;96826.97;1222577;75;2935244;-66
2023/07/26 05:24:59;;;;;;;2.40;1.20;;;;;;;15.62;100.00;96830.22;1219096;75;3006330;-67
2023/07/26 05:27:34;;;;;;;1.25;1.00;;;;;;;16.01;100.00;96833.53;1221845;75;2923050;-67
2023/07/26 05:30:08;;;;;;;7.95;2.45;;;;;;;16.14;100.00;96834.25;1223031;75;2934193;-67
2023/07/26 05:32:41;;;;;;;2.65;1.80;;;;;;;16.24;100.00;96823.50;1222516;75;2928593;-66
2023/07/26 05:35:14;;;;;;;2.20;1.60;;;;;;;16.45;100.00;96826.34;1222173;75;2920906;-68
2023/07/26 05:37:47;;;;;;;2.30;1.50;;;;;;;16.22;100.00;96833.59;1223462;75;2923004;-68
2023/07/26 05:40:20;;;;;;;2.25;1.40;;;;;;;16.41;100.00;96845.25;1223006;75;2922960;-67
2023/07/26 05:42:55;;;;;;;1.40;1.25;;;;;;;16.85;100.00;96839.28;1222765;75;2954481;-69
2023/07/26 05:45:27;;;;;;;1.85;1.45;;;;;;;16.64;100.00;96861.34;1223595;75;2923616;-68
2023/07/26 05:48:00;;;;;;;1.80;1.50;;;;;;;16.61;100.00;96869.41;1223455;75;2929972;-67
2023/07/26 05:50:33;;;;;;;2.55;1.50;;;;;;;16.67;100.00;96876.81;1223433;75;2921404;-67
2023/07/26 05:53:05;;;;;;;4.95;1.40;;;;;;;16.76;100.00;96881.91;1220719;75;3027408;-65
2023/07/26 05:55:38;;;;;;;2.80;1.80;;;;;;;16.56;100.00;96892.38;1223528;75;2957584;-69
2023/07/26 05:58:13;;;;;;;2.20;1.60;;;;;;;16.67;100.00;96898.94;1223785;75;2930826;-68
2023/07/26 06:00:45;;;;;;;1.95;1.40;;;;;;;16.70;100.00;96906.91;1222790;75;2932452;-67
2023/07/26 06:03:18;;;;;;;1.75;1.20;;;;;;;16.77;100.00;96903.50;1223156;75;2927787;-67
2023/07/26 06:05:51;;;;;;;1.30;1.10;;;;;;;16.78;100.00;96907.00;1221879;75;2922317;-66
2023/07/26 06:08:23;;;;;;;2.40;1.95;;;;;;;16.58;100.00;96903.66;1222355;75;2925096;-66
2023/07/26 06:10:56;;;;;;;2.45;1.75;;;;;;;16.80;100.00;96904.47;1219414;75;2928152;-69
2023/07/26 06:13:31;;;;;;;2.10;1.60;;;;;;;17.18;100.00;96915.19;1222909;75;2930904;-67
2023/07/26 06:16:04;;;;;;;2.60;1.55;;;;;;;17.00;100.00;96917.59;1216523;75;3076476;-66
2023/07/26 06:18:36;;;;;;;2.25;1.95;;;;;;;16.86;100.00;96927.22;1223561;75;2920085;-68
2023/07/26 06:21:09;;;;;;;3.35;2.70;;;;;;;16.97;100.00;96915.16;1222253;75;2918846;-66
2023/07/26 06:23:42;;;;;;;3.55;2.25;;;;;;;17.15;100.00;96925.31;1223033;75;2921692;-69
2023/07/26 06:26:14;;;;;;;3.85;2.10;;;;;;;16.84;100.00;96938.06;1223035;75;2927533;-71
2023/07/26 06:28:49;;;;;;;2.40;2.05;;;;;;;16.83;100.00;96937.28;1223623;75;2928435;-68
2023/07/26 06:31:22;;;;;;;2.80;2.35;;;;;;;16.79;100.00;96950.00;1223405;75;2923176;-66
2023/07/26 06:33:55;;;;;;;3.10;2.50;;;;;;;16.62;100.00;96955.84;1222306;75;2924973;-67
2023/07/26 06:36:27;;;;;;;2.45;2.25;;;;;;;16.88;100.00;96959.84;1223425;75;2932936;-66
2023/07/26 06:39:00;;;;;;;2.60;1.95;;;;;;;17.03;100.00;96960.03;1223103;75;2929596;-67
2023/07/26 06:41:33;;;;;;;3.15;2.55;;;;;;;16.83;100.00;96966.97;1223104;75;2927368;-70
2023/07/26 06:44:08;;;;;;;2.65;2.40;;;;;;;17.10;100.00;96967.66;1222207;75;2926671;-68
2023/07/26 06:46:41;;;;;;;3.90;2.40;;;;;;;16.87;100.00;96967.41;1223124;75;2925648;-67
2023/07/26 06:49:13;;;;;;;8.15;3.35;;;;;;;16.74;100.00;96970.91;1222443;75;2923612;-69
2023/07/26 06:51:46;;;;;;;3.70;2.85;;;;;;;16.86;100.00;96978.97;1222514;75;2933561;-70
2023/07/26 06:54:19;;;;;;;5.25;2.60;;;;;;;16.73;100.00;96972.16;1223220;75;2928565;-70
2023/07/26 06:56:51;;;;;;;3.50;2.35;;;;;;;16.80;100.00;96970.81;1221991;75;2914419;-67
2023/07/26 06:59:27;;;;;;;2.80;2.30;;;;;;;16.80;100.00;96973.56;1221811;75;2929143;-69
2023/07/26 07:01:59;;;;;;;2.75;2.10;;;;;;;16.85;100.00;96974.75;1223762;75;2927817;-68
2023/07/26 07:04:32;;;;;;;4.60;2.35;;;;;;;16.99;100.00;96968.63;1223320;75;2925987;-65
2023/07/26 07:07:04;;;;;;;3.45;2.05;;;;;;;16.85;100.00;96972.72;1222705;75;2928111;-67
2023/07/26 07:09:37;;;;;;;2.40;2.05;;;;;;;17.00;100.00;96978.44;1222784;75;2927250;-67
2023/07/26 07:12:11;;;;;;;2.85;1.65;;;;;;;16.95;100.00;96989.59;1222814;75;2922258;-68
2023/07/26 07:14:47;;;;;;;3.50;1.90;;;;;;;17.14;100.00;96990.19;1223187;75;2929328;-68
2023/07/26 07:17:19;;;;;;;2.25;1.90;;;;;;;17.09;100.00;96998.59;1223864;75;2920553;-67
2023/07/26 07:19:52;;;;;;;5.15;2.15;;;;;;;17.08;100.00;96995.09;1222869;75;2932114;-64
2023/07/26 07:22:25;;;;;;;2.90;1.80;;;;;;;17.35;100.00;96995.00;1222796;75;2935758;-67
2023/07/26 07:24:57;;;;;;;3.30;2.05;;;;;;;17.26;100.00;97004.50;1185062;75;5738120;-67
2023/07/26 07:27:30;;;;;;;2.10;1.90;;;;;;;17.48;100.00;97000.47;1158821;75;8120729;-67
2023/07/26 07:30:10;;;;;;;3.15;2.15;;;;;;;17.55;100.00;97010.88;1222403;75;2928098;-67
2023/07/26 07:32:42;;;;;;;5.55;2.75;;;;;;;17.76;100.00;97012.94;1221837;75;2932137;-69
2023/07/26 07:35:15;;;;;;;2.90;1.80;;;;;;;17.90;100.00;97011.59;1221756;75;2921869;-68
2023/07/26 07:37:47;;;;;;;4.75;1.50;;;;;;;17.96;100.00;97014.94;1223370;75;2930425;-67
2023/07/26 07:40:20;;;;;;;3.20;1.50;;;;;;;17.97;100.00;97002.59;1220731;75;2920395;-69
2023/07/26 07:42:53;;;;;;;4.25;1.65;;;;;;;17.97;100.00;97004.63;1219352;75;3122257;-68
2023/07/26 07:45:28;;;;;;;3.15;1.30;;;;;;;18.08;100.00;96996.75;1223365;75;2930643;-68
2023/07/26 07:48:01;;;;;;;4.75;2.30;;;;;;;18.01;100.00;97013.34;1223419;75;2920745;-68
2023/07/26 07:50:33;;;;;;;2.30;1.55;;;;;;;17.95;100.00;97021.78;1222115;75;2926629;-68
2023/07/26 07:53:06;;;;;;;3.45;1.40;;;;;;;18.09;100.00;97022.47;1222318;75;2926004;-67
2023/07/26 07:55:41;;;;;;;2.10;1.80;;;;;;;18.33;97.15;97024.09;1222988;75;2938054;-66
2023/07/26 07:58:14;;;;;;;3.15;1.60;;;;;;;18.29;92.19;97032.00;1221913;75;2926951;-67
2023/07/26 08:00:49;;;;;;;1.75;1.20;;;;;;;18.49;92.32;97028.44;1221804;75;2929391;-69
2023/07/26 08:03:22;;;;;;;2.65;1.50;;;;;;;18.27;92.52;97040.13;1223113;75;2923923;-66
2023/07/26 08:05:55;;;;;;;2.80;0.80;;;;;;;18.43;92.82;97036.19;1221573;75;2927136;-65
2023/07/26 08:08:28;;;;;;;1.65;1.00;;;;;;;18.93;86.35;97033.34;1222724;75;2926749;-67
2023/07/26 08:11:00;;;;;;;7.20;1.25;;;;;;;18.97;81.29;97038.53;1222828;75;2932807;-67
2023/07/26 08:13:33;;;;;;;2.05;0.80;;;;;;;18.92;72.49;97037.38;1223974;75;2921222;-65
2023/07/26 08:16:08;;;;;;;10.25;1.80;;;;;;;19.13;70.98;97034.53;1220584;75;3007573;-68
2023/07/26 08:18:41;;;;;;;0.70;0.60;;;;;;;19.38;71.19;97037.53;1222733;75;2926453;-65
2023/07/26 08:21:16;;;;;;;1.35;0.80;;;;;;;19.57;70.98;97037.22;1223010;75;2860264;-66
2023/07/26 08:23:49;;;;;;;4.65;0.85;;;;;;;19.67;65.56;97037.44;1223677;75;2931848;-69
2023/07/26 08:26:22;;;;;;;6.60;1.00;;;;;;;19.48;64.88;97032.22;1222876;75;2933562;-68
2023/07/26 08:28:54;;;;;;;1.40;1.10;;;;;;;19.72;64.59;97048.41;1222444;75;2932796;-68
2023/07/26 08:31:30;;;;;;;2.55;0.80;;;;;;;19.69;64.23;97041.16;1221664;75;2924776;-67
2023/07/26 08:34:02;;;;;;;1.70;1.00;;;;;;;19.63;61.32;97053.72;1222973;75;2920719;-68
2023/07/26 08:36:35;;;;;;;2.00;1.10;;;;;;;19.80;62.18;97051.19;1222760;75;2925892;-66
2023/07/26 08:39:07;;;;;;;1.15;0.65;;;;;;;19.99;62.13;97053.63;1222371;75;2929066;-70
2023/07/26 08:41:41;;;;;;;9.50;1.60;;;;;;;19.95;61.15;97050.47;1222021;75;2921266;-67
2023/07/26 08:44:14;;;;;;;9.25;1.30;;;;;;;20.11;60.24;97059.56;1222663;75;2926950;-69
2023/07/26 08:46:51;;;;;;;1.70;1.00;;;;;;;19.95;62.12;97064.34;1222489;75;2949707;-68
2023/07/26 08:49:23;;;;;;;0.70;0.60;;;;;;;20.11;57.67;97062.31;1222404;75;2924994;-66
2023/07/26 08:51:57;;;;;;;1.15;0.80;;;;;;;20.05;57.17;97070.09;1223002;75;2926532;-70
2023/07/26 08:54:29;;;;;;;3.60;0.80;;;;;;;20.51;60.00;97064.50;1223156;75;2917750;-67
2023/07/26 08:57:02;;;;;;;1.90;0.65;;;;;;;20.60;56.97;97067.50;1223738;75;2922624;-67
2023/07/26 08:59:35;;;;;;;4.70;0.90;;;;;;;20.59;57.01;97071.59;1222602;75;2921813;-66
2023/07/26 09:02:14;;;;;;;0.90;0.70;;;;;;;20.68;54.92;97069.53;1222643;75;2923185;-69
2023/07/26 09:04:47;;;;;;;1.05;0.60;;;;;;;20.62;55.61;97064.91;1222814;75;2927309;-67
2023/07/26 09:07:20;;;;;;;4.85;0.90;;;;;;;20.15;54.54;97079.34;1223915;75;2919408;-65
2023/07/26 09:09:53;;;;;;;2.95;0.70;;;;;;;20.06;55.54;97072.31;1220346;75;2925813;-66
2023/07/26 09:12:30;;;;;;;3.80;0.70;;;;;;;20.33;55.86;97071.97;1223109;75;2928776;-68
2023/07/26 09:15:08;;;;;;;3.25;0.85;;;;;;;20.33;57.38;97078.25;1225088;75;2921067;-66
2023/07/26 09:17:46;;;;;;;1.10;0.60;;;;;;;20.33;56.19;97083.06;1224193;75;2919527;-67
2023/07/26 09:20:29;;;;;;;6.80;0.70;;;;;;;20.71;55.24;97080.28;1223201;75;2922306;-72
2023/07/26 09:23:06;;;;;;;2.55;0.40;;;;;;;20.79;53.56;97083.03;1223003;75;2923208;-68
2023/07/26 09:25:41;;;;;;;0.60;0.60;;;;;;;20.73;52.95;97096.41;1222143;75;2928248;-69
2023/07/26 09:28:16;;;;;;;1.05;0.50;;;;;;;20.92;53.69;97087.63;1223914;75;2918900;-68
2023/07/26 09:30:49;;;;;;;1.45;0.70;;;;;;;20.92;54.10;97090.41;1222976;75;2924341;-68
2023/07/26 09:33:27;;;;;;;6.75;1.00;;;;;;;20.88;53.15;97090.81;1224240;75;2919942;-67
2023/07/26 09:35:59;;;;;;;4.90;0.80;;;;;;;21.25;53.34;97094.03;1224464;75;2922315;-66
2023/07/26 09:38:32;;;;;;;2.80;0.75;;;;;;;20.92;52.94;97095.97;1222164;75;2926166;-65
2023/07/26 09:41:25;;;;;;;0.80;0.40;;;;;;;21.26;54.38;97095.50;1222568;75;2928739;-71
2023/07/26 09:44:02;;;;;;;0.75;0.40;;;;;;;21.25;54.14;97088.47;1222592;75;2926766;-67
2023/07/26 09:46:48;;;;;;;0.70;0.50;;;;;;;21.10;54.78;97099.66;1222970;75;2923886;-69
2023/07/26 09:49:26;;;;;;;0.55;0.50;;;;;;;21.13;53.50;97098.53;1223329;75;2931866;-68
2023/07/26 09:52:01;;;;;;;;;;;;;;;21.46;53.65;97102.16;1221046;75;3158139;-66
2023/07/26 09:54:37;;;;;;;1.60;0.30;;;;;;;21.79;49.95;97107.72;1223575;75;2922682;-66
2023/07/26 09:57:10;;;;;;;0.85;0.50;;;;;;;21.40;51.21;97107.19;1223768;75;2923496;-69
2023/07/26 09:59:43;;;;;;;0.80;0.55;;;;;;;20.93;51.70;97109.34;1223378;75;2934458;-67
2023/07/26 10:02:17;;;;;;;1.05;0.50;;;;;;;21.50;51.66;97102.47;1224187;75;2929290;-67
2023/07/26 10:04:58;;;;;;;0.60;0.40;;;;;;;21.06;53.01;97108.38;1223658;75;2926565;-65
2023/07/26 10:07:31;;;;;;;5.35;2.55;;;;;;;20.80;52.80;97109.53;1223343;75;2922096;-67
2023/07/26 10:10:04;;;;;;;0.55;0.40;;;;;;;21.09;51.43;97121.16;1223011;75;2920534;-66
2023/07/26 10:12:40;;;;;;;0.70;0.45;;;;;;;21.36;52.67;97113.13;1223457;75;2923317;-65
2023/07/26 10:15:15;;;;;;;4.55;0.60;;;;;;;20.67;51.47;97118.84;1223739;75;2927849;-66
2023/07/26 10:17:50;;;;;;;1.45;0.55;;;;;;;20.81;53.29;97122.91;1223265;75;2922875;-68
2023/07/26 10:20:26;;;;;;;0.65;0.45;;;;;;;20.29;53.33;97122.34;1223177;75;2922339;-65
2023/07/26 10:23:06;;;;;;;1.65;0.40;;;;;;;20.49;54.97;97131.06;1223637;75;2925595;-70
2023/07/26 10:25:40;;;;;;;3.70;0.50;;;;;;;20.18;53.90;97129.03;1223739;75;2919174;-69
2023/07/26 10:28:14;;;;;;;1.60;0.50;;;;;;;19.90;52.55;97131.94;1224644;75;2923413;-65
2023/07/26 10:30:47;;;;;;;0.60;0.40;;;;;;;19.81;53.98;97124.88;1222630;75;2929231;-66
2023/07/26 10:33:21;;;;;;;2.20;0.80;;;;;;;19.98;54.97;97129.91;1224072;75;2921378;-66
2023/07/26 10:35:56;;;;;;;0.75;0.40;;;;;;;19.66;55.27;97135.91;1224345;75;2935579;-69
2023/07/26 10:38:29;;;;;;;3.95;0.75;;;;;;;19.95;54.52;97137.31;1224043;75;2915969;-66
2023/07/26 10:41:22;;;;;;;0.45;0.30;;;;;;;19.74;53.64;97145.03;1224114;83;2919201;-66
2023/07/26 10:44:04;;;;;;;0.70;0.30;;;;;;;20.00;52.54;97141.94;1222291;75;2930261;-65
2023/07/26 10:46:54;;;;;;;0.85;0.40;;;;;;;20.21;54.22;97144.59;1223375;75;2921563;-67
2023/07/26 10:49:31;;;;;;;1.20;0.40;;;;;;;20.13;54.21;97141.06;1222776;75;2922062;-66
2023/07/26 10:52:08;;;;;;;1.00;0.30;;;;;;;20.50;54.08;97140.91;1223117;75;2926349;-69
2023/07/26 10:54:44;;;;;;;2.60;1.20;;;;;;;21.12;54.81;97142.31;1223587;75;2924412;-67
2023/07/26 10:57:25;;;;;;;1.30;0.50;;;;;;;21.55;51.28;97148.13;1221576;75;2926028;-68
2023/07/26 11:00:04;;;;;;;3.65;1.95;;;;;;;21.50;51.16;97149.81;1222720;75;2921220;-69
2023/07/26 11:02:46;;;;;;;0.80;0.50;;;;;;;21.01;51.00;97143.44;1224166;75;2921236;-69
2023/07/26 11:05:20;;;;;;;3.65;0.55;;;;;;;21.46;53.15;97146.69;1223768;75;2920070;-67
2023/07/26 11:07:59;;;;;;;1.25;0.45;;;;;;;21.92;52.52;97138.84;1223385;83;2918962;-67
2023/07/26 11:10:34;;;;;;;0.40;0.30;;;;;;;21.31;51.95;97139.13;1223084;75;2917288;-66
2023/07/26 11:13:15;;;;;;;3.40;0.60;;;;;;;21.02;50.53;97142.16;1223733;75;2937679;-66
2023/07/26 11:15:49;;;;;;;0.70;0.30;;;;;;;20.83;51.39;97148.13;1222983;75;2926442;-70
2023/07/26 11:18:23;;;;;;;1.75;0.60;;;;;;;21.23;51.41;97147.47;1224141;75;2923865;-67
2023/07/26 11:20:58;;;;;;;3.95;0.80;;;;;;;21.31;50.35;97157.84;1222792;75;2927224;-66
2023/07/26 11:23:34;;;;;;;1.00;0.40;;;;;;;20.94;49.24;97149.03;1223767;75;2926853;-66
2023/07/26 11:26:06;;;;;;;0.30;0.30;;;;;;;21.32;50.88;97153.78;1223409;75;2924868;-67
2023/07/26 11:28:39;;;;;;;0.30;0.30;;;;;;;21.27;50.17;97163.81;1224355;75;2937361;-69
2023/07/26 11:31:22;;;;;;;3.50;0.60;;;;;;;20.91;49.84;97173.16;1222819;75;2918686;-66
2023/07/26 11:33:54;;;;;;;2.65;0.50;;;;;;;21.05;50.96;97177.22;1223197;75;2924294;-68
2023/07/26 11:36:27;;;;;;;1.30;0.60;;;;;;;20.70;50.81;97184.47;1223041;75;2929280;-65
2023/07/26 11:39:02;;;;;;;1.25;0.50;;;;;;;20.91;50.29;97172.41;1222710;75;2920344;-69
2023/07/26 11:41:35;;;;;;;0.95;0.40;;;;;;;20.67;50.43;97173.75;1222195;75;2939385;-65
2023/07/26 11:44:07;;;;;;;4.80;0.85;;;;;;;20.50;51.77;97177.03;1223736;75;2929393;-66